Sac River (Missouri), Route J (06919020)

StateMissouriLatestFlood (5110 cfs)
RiverSac RiverRatingObservedEstimated
Updated2020-07-13 19:45 (55 minutes ago)Flood - The river is flooding. Obstacles can be treacherous or deadly. The river should be avoided at this stage for casual trips and definitely for the inexperienced. Trips should be attempted only with protective gear and equipment.Flood(none)4493
Discharge5110 cfs (median: 917 cfs)High - The river is high and potentially dangerous, especially for the young and / or inexperienced. Normal stream obstacles are sometimes difficult to navigate. Extended distances can be attempted, but canoe travel may not be advisable.High(none)1358
Height16.07 feetGood - Conditions are ideal for a canoe or kayak. Boats typically will drag on fewer than one-quarter of riffles, if at all, and portages are unnecessary or rare. Normal float lengths can be attempted without a problem.Good(none)1067
TrendRising (rising over 24 hours)Low - River is low but can still be floated. Some riffles are okay but most come with significant dragging and might need a portage. Float lengths should be reduced to accommodate low flow, dragging, and portages.Low(none)931
USGSExternal icon USGS Site (External icon Google Maps)Poor - River is too low to float comfortably. Most or all riffles will drag or must be portaged and some obstacles (such as slick shelf rock) cause undue problems. Avoid the river at this stage for casual paddling trips.Poor(none)61

Trending Data

Plot Image

Trips for Sac River (Missouri), Route J (06919020)

DateStartEndDistanceConditionDischargeHeightFishingDetails

A total of 0 rows are displayed.

Condition Descriptions

Fishing Conditions

Fish Species

Notes

Classic Trip List

The classic River Trips application is still available for use. It is updated with the new system using a data retrofit. It is no longer maintained. The original River Trips application is no longer updated (as of 1 Dec 2016) but can be checked for errors or for the condition of the data before it was converted to the new system.

Gauge Data Table

ObservationHeightDischargeMaximum
Discharge
Minimum
Discharge
Mean
Discharge
P05P10P20P25P50
(Median)
P75P80P90P95
2020-07-13 19:45 16.07 5110 6300 (2008) 58 (2006) 1490 61 73 120 308 917 1770 1920 4630 5620
2020-07-13 18:45 16.02 5070 6300 (2008) 58 (2006) 1490 61 73 120 308 917 1770 1920 4630 5620
2020-07-13 17:45 15.34 4550 6300 (2008) 58 (2006) 1490 61 73 120 308 917 1770 1920 4630 5620
2020-07-13 16:45 14.20 3720 6300 (2008) 58 (2006) 1490 61 73 120 308 917 1770 1920 4630 5620
2020-07-13 15:45 11.59 2110 6300 (2008) 58 (2006) 1490 61 73 120 308 917 1770 1920 4630 5620
2020-07-13 14:45 7.31 426 6300 (2008) 58 (2006) 1490 61 73 120 308 917 1770 1920 4630 5620
2020-07-13 13:45 6.44 209 6300 (2008) 58 (2006) 1490 61 73 120 308 917 1770 1920 4630 5620
2020-07-13 12:45 6.47 216 6300 (2008) 58 (2006) 1490 61 73 120 308 917 1770 1920 4630 5620
2020-07-13 11:45 6.49 221 6300 (2008) 58 (2006) 1490 61 73 120 308 917 1770 1920 4630 5620
2020-07-13 10:45 6.53 230 6300 (2008) 58 (2006) 1490 61 73 120 308 917 1770 1920 4630 5620
2020-07-13 09:45 6.57 240 6300 (2008) 58 (2006) 1490 61 73 120 308 917 1770 1920 4630 5620
2020-07-13 08:45 6.64 256 6300 (2008) 58 (2006) 1490 61 73 120 308 917 1770 1920 4630 5620
2020-07-13 07:45 6.73 279 6300 (2008) 58 (2006) 1490 61 73 120 308 917 1770 1920 4630 5620
2020-07-13 06:45 6.86 314 6300 (2008) 58 (2006) 1490 61 73 120 308 917 1770 1920 4630 5620
2020-07-13 05:45 7.04 358 6300 (2008) 58 (2006) 1490 61 73 120 308 917 1770 1920 4630 5620
2020-07-13 04:45 7.28 418 6300 (2008) 58 (2006) 1490 61 73 120 308 917 1770 1920 4630 5620
2020-07-13 03:45 7.60 505 6300 (2008) 58 (2006) 1490 61 73 120 308 917 1770 1920 4630 5620
2020-07-13 02:45 8.00 622 6300 (2008) 58 (2006) 1490 61 73 120 308 917 1770 1920 4630 5620
2020-07-13 01:45 8.50 782 6300 (2008) 58 (2006) 1490 61 73 120 308 917 1770 1920 4630 5620
2020-07-13 00:45 9.09 989 6300 (2008) 58 (2006) 1490 61 73 120 308 917 1770 1920 4630 5620
2020-07-12 23:45 9.79 1260 6220 (2008) 57 (2006) 1520 61 69 101 121 907 2350 2710 4870 5120
2020-07-12 22:45 10.60 1610 6220 (2008) 57 (2006) 1520 61 69 101 121 907 2350 2710 4870 5120
2020-07-12 21:45 11.54 2080 6220 (2008) 57 (2006) 1520 61 69 101 121 907 2350 2710 4870 5120
2020-07-12 20:45 12.56 2660 6220 (2008) 57 (2006) 1520 61 69 101 121 907 2350 2710 4870 5120
2020-07-12 19:45 13.53 3270 6220 (2008) 57 (2006) 1520 61 69 101 121 907 2350 2710 4870 5120
2020-07-12 18:45 13.89 3510 6220 (2008) 57 (2006) 1520 61 69 101 121 907 2350 2710 4870 5120
2020-07-12 17:45 11.46 2040 6220 (2008) 57 (2006) 1520 61 69 101 121 907 2350 2710 4870 5120
2020-07-12 16:45 7.22 403 6220 (2008) 57 (2006) 1520 61 69 101 121 907 2350 2710 4870 5120
2020-07-12 15:45 6.38 195 6220 (2008) 57 (2006) 1520 61 69 101 121 907 2350 2710 4870 5120
2020-07-12 14:45 6.38 195 6220 (2008) 57 (2006) 1520 61 69 101 121 907 2350 2710 4870 5120
2020-07-12 13:45 6.39 198 6220 (2008) 57 (2006) 1520 61 69 101 121 907 2350 2710 4870 5120
2020-07-12 12:45 6.40 200 6220 (2008) 57 (2006) 1520 61 69 101 121 907 2350 2710 4870 5120
2020-07-12 11:45 6.40 200 6220 (2008) 57 (2006) 1520 61 69 101 121 907 2350 2710 4870 5120
2020-07-12 10:45 6.41 202 6220 (2008) 57 (2006) 1520 61 69 101 121 907 2350 2710 4870 5120
2020-07-12 09:45 6.40 200 6220 (2008) 57 (2006) 1520 61 69 101 121 907 2350 2710 4870 5120
2020-07-12 08:45 6.40 200 6220 (2008) 57 (2006) 1520 61 69 101 121 907 2350 2710 4870 5120
2020-07-12 07:45 6.40 200 6220 (2008) 57 (2006) 1520 61 69 101 121 907 2350 2710 4870 5120
2020-07-12 06:45 6.40 200 6220 (2008) 57 (2006) 1520 61 69 101 121 907 2350 2710 4870 5120
2020-07-12 05:45 6.39 198 6220 (2008) 57 (2006) 1520 61 69 101 121 907 2350 2710 4870 5120
2020-07-12 04:45 6.39 198 6220 (2008) 57 (2006) 1520 61 69 101 121 907 2350 2710 4870 5120
2020-07-12 03:45 6.39 198 6220 (2008) 57 (2006) 1520 61 69 101 121 907 2350 2710 4870 5120
2020-07-12 02:45 6.39 198 6220 (2008) 57 (2006) 1520 61 69 101 121 907 2350 2710 4870 5120
2020-07-12 01:45 6.39 198 6220 (2008) 57 (2006) 1520 61 69 101 121 907 2350 2710 4870 5120
2020-07-12 00:45 6.39 198 6220 (2008) 57 (2006) 1520 61 69 101 121 907 2350 2710 4870 5120
2020-07-11 23:45 6.39 198 6360 (2008) 55 (2006) 1530 59 72 123 225 1010 2320 2500 4760 5210
2020-07-11 22:45 6.39 198 6360 (2008) 55 (2006) 1530 59 72 123 225 1010 2320 2500 4760 5210
2020-07-11 21:45 6.40 200 6360 (2008) 55 (2006) 1530 59 72 123 225 1010 2320 2500 4760 5210
2020-07-11 20:45 6.40 200 6360 (2008) 55 (2006) 1530 59 72 123 225 1010 2320 2500 4760 5210
2020-07-11 19:45 6.41 202 6360 (2008) 55 (2006) 1530 59 72 123 225 1010 2320 2500 4760 5210
2020-07-11 18:45 6.43 207 6360 (2008) 55 (2006) 1530 59 72 123 225 1010 2320 2500 4760 5210
2020-07-11 17:45 6.44 209 6360 (2008) 55 (2006) 1530 59 72 123 225 1010 2320 2500 4760 5210
2020-07-11 16:45 6.46 214 6360 (2008) 55 (2006) 1530 59 72 123 225 1010 2320 2500 4760 5210
2020-07-11 15:45 6.48 219 6360 (2008) 55 (2006) 1530 59 72 123 225 1010 2320 2500 4760 5210
2020-07-11 14:45 6.50 223 6360 (2008) 55 (2006) 1530 59 72 123 225 1010 2320 2500 4760 5210
2020-07-11 13:45 6.53 230 6360 (2008) 55 (2006) 1530 59 72 123 225 1010 2320 2500 4760 5210
2020-07-11 12:45 6.56 237 6360 (2008) 55 (2006) 1530 59 72 123 225 1010 2320 2500 4760 5210
2020-07-11 11:45 6.62 251 6360 (2008) 55 (2006) 1530 59 72 123 225 1010 2320 2500 4760 5210
2020-07-11 10:45 6.68 266 6360 (2008) 55 (2006) 1530 59 72 123 225 1010 2320 2500 4760 5210
2020-07-11 09:45 6.78 292 6360 (2008) 55 (2006) 1530 59 72 123 225 1010 2320 2500 4760 5210
2020-07-11 08:45 6.91 326 6360 (2008) 55 (2006) 1530 59 72 123 225 1010 2320 2500 4760 5210
2020-07-11 07:45 7.09 370 6360 (2008) 55 (2006) 1530 59 72 123 225 1010 2320 2500 4760 5210
2020-07-11 06:45 7.34 434 6360 (2008) 55 (2006) 1530 59 72 123 225 1010 2320 2500 4760 5210
2020-07-11 05:45 7.66 522 6360 (2008) 55 (2006) 1530 59 72 123 225 1010 2320 2500 4760 5210
2020-07-11 04:45 8.07 644 6360 (2008) 55 (2006) 1530 59 72 123 225 1010 2320 2500 4760 5210
2020-07-11 03:45 8.58 809 6360 (2008) 55 (2006) 1530 59 72 123 225 1010 2320 2500 4760 5210
2020-07-11 02:45 9.20 1030 6360 (2008) 55 (2006) 1530 59 72 123 225 1010 2320 2500 4760 5210
2020-07-11 01:45 9.93 1320 6360 (2008) 55 (2006) 1530 59 72 123 225 1010 2320 2500 4760 5210
2020-07-11 00:45 10.79 1700 6360 (2008) 55 (2006) 1530 59 72 123 225 1010 2320 2500 4760 5210
2020-07-10 23:45 11.80 2220 6400 (2008) 56 (1978) 1510 58 72 117 134 864 2310 2550 4830 5220
2020-07-10 22:45 12.94 2890 6400 (2008) 56 (1978) 1510 58 72 117 134 864 2310 2550 4830 5220
2020-07-10 21:45 14.17 3700 6400 (2008) 56 (1978) 1510 58 72 117 134 864 2310 2550 4830 5220
2020-07-10 20:45 15.45 4630 6400 (2008) 56 (1978) 1510 58 72 117 134 864 2310 2550 4830 5220
2020-07-10 19:45 16.51 5470 6400 (2008) 56 (1978) 1510 58 72 117 134 864 2310 2550 4830 5220
2020-07-10 18:45 16.18 5200 6400 (2008) 56 (1978) 1510 58 72 117 134 864 2310 2550 4830 5220
2020-07-10 17:45 15.48 4650 6400 (2008) 56 (1978) 1510 58 72 117 134 864 2310 2550 4830 5220
2020-07-10 16:45 14.33 3810 6400 (2008) 56 (1978) 1510 58 72 117 134 864 2310 2550 4830 5220
2020-07-10 15:45 11.83 2240 6400 (2008) 56 (1978) 1510 58 72 117 134 864 2310 2550 4830 5220
2020-07-10 14:45 7.58 499 6400 (2008) 56 (1978) 1510 58 72 117 134 864 2310 2550 4830 5220
2020-07-10 13:45 6.54 233 6400 (2008) 56 (1978) 1510 58 72 117 134 864 2310 2550 4830 5220
2020-07-10 12:45 6.57 240 6400 (2008) 56 (1978) 1510 58 72 117 134 864 2310 2550 4830 5220
2020-07-10 11:45 6.62 251 6400 (2008) 56 (1978) 1510 58 72 117 134 864 2310 2550 4830 5220
2020-07-10 10:45 6.69 269 6400 (2008) 56 (1978) 1510 58 72 117 134 864 2310 2550 4830 5220
2020-07-10 09:45 6.78 292 6400 (2008) 56 (1978) 1510 58 72 117 134 864 2310 2550 4830 5220
2020-07-10 08:45 6.90 324 6400 (2008) 56 (1978) 1510 58 72 117 134 864 2310 2550 4830 5220
2020-07-10 07:45 7.07 365 6400 (2008) 56 (1978) 1510 58 72 117 134 864 2310 2550 4830 5220
2020-07-10 06:45 7.30 424 6400 (2008) 56 (1978) 1510 58 72 117 134 864 2310 2550 4830 5220
2020-07-10 05:45 7.61 508 6400 (2008) 56 (1978) 1510 58 72 117 134 864 2310 2550 4830 5220
2020-07-10 04:45 8.00 622 6400 (2008) 56 (1978) 1510 58 72 117 134 864 2310 2550 4830 5220
2020-07-10 03:45 8.50 782 6400 (2008) 56 (1978) 1510 58 72 117 134 864 2310 2550 4830 5220
2020-07-10 02:45 9.10 993 6400 (2008) 56 (1978) 1510 58 72 117 134 864 2310 2550 4830 5220
2020-07-10 01:45 9.80 1270 6400 (2008) 56 (1978) 1510 58 72 117 134 864 2310 2550 4830 5220
2020-07-10 00:45 10.64 1630 6400 (2008) 56 (1978) 1510 58 72 117 134 864 2310 2550 4830 5220
2020-07-09 23:45 11.62 2120 6350 (2008) 54 (2006) 1460 58 66 137 266 1010 1900 2140 4580 5140
2020-07-09 22:45 12.73 2760 6350 (2008) 54 (2006) 1460 58 66 137 266 1010 1900 2140 4580 5140
2020-07-09 21:45 13.94 3540 6350 (2008) 54 (2006) 1460 58 66 137 266 1010 1900 2140 4580 5140
2020-07-09 20:45 15.18 4430 6350 (2008) 54 (2006) 1460 58 66 137 266 1010 1900 2140 4580 5140
2020-07-09 19:45 16.19 5210 6350 (2008) 54 (2006) 1460 58 66 137 266 1010 1900 2140 4580 5140
2020-07-09 18:45 15.80 4900 6350 (2008) 54 (2006) 1460 58 66 137 266 1010 1900 2140 4580 5140
2020-07-09 17:45 14.92 4230 6350 (2008) 54 (2006) 1460 58 66 137 266 1010 1900 2140 4580 5140
2020-07-09 16:45 13.49 3240 6350 (2008) 54 (2006) 1460 58 66 137 266 1010 1900 2140 4580 5140
2020-07-09 15:45 11.14 1870 6350 (2008) 54 (2006) 1460 58 66 137 266 1010 1900 2140 4580 5140
2020-07-09 14:45 6.97 341 6350 (2008) 54 (2006) 1460 58 66 137 266 1010 1900 2140 4580 5140
2020-07-09 13:45 6.55 235 6350 (2008) 54 (2006) 1460 58 66 137 266 1010 1900 2140 4580 5140
2020-07-09 12:45 6.58 242 6350 (2008) 54 (2006) 1460 58 66 137 266 1010 1900 2140 4580 5140
2020-07-09 11:45 6.63 254 6350 (2008) 54 (2006) 1460 58 66 137 266 1010 1900 2140 4580 5140
2020-07-09 10:45 6.68 266 6350 (2008) 54 (2006) 1460 58 66 137 266 1010 1900 2140 4580 5140
2020-07-09 09:45 6.78 292 6350 (2008) 54 (2006) 1460 58 66 137 266 1010 1900 2140 4580 5140
2020-07-09 08:45 6.90 324 6350 (2008) 54 (2006) 1460 58 66 137 266 1010 1900 2140 4580 5140
2020-07-09 07:45 7.07 365 6350 (2008) 54 (2006) 1460 58 66 137 266 1010 1900 2140 4580 5140
2020-07-09 06:45 7.30 424 6350 (2008) 54 (2006) 1460 58 66 137 266 1010 1900 2140 4580 5140
2020-07-09 05:45 7.61 508 6350 (2008) 54 (2006) 1460 58 66 137 266 1010 1900 2140 4580 5140
2020-07-09 04:45 8.01 625 6350 (2008) 54 (2006) 1460 58 66 137 266 1010 1900 2140 4580 5140
2020-07-09 03:45 8.51 785 6350 (2008) 54 (2006) 1460 58 66 137 266 1010 1900 2140 4580 5140
2020-07-09 02:45 9.11 996 6350 (2008) 54 (2006) 1460 58 66 137 266 1010 1900 2140 4580 5140
2020-07-09 01:45 9.83 1280 6350 (2008) 54 (2006) 1460 58 66 137 266 1010 1900 2140 4580 5140
2020-07-09 00:45 10.67 1650 6350 (2008) 54 (2006) 1460 58 66 137 266 1010 1900 2140 4580 5140
2020-07-08 23:45 11.66 2150 6340 (2008) 54 (2006) 1530 59 79 338 557 939 2050 2320 4110 5120
2020-07-08 22:45 12.78 2790 6340 (2008) 54 (2006) 1530 59 79 338 557 939 2050 2320 4110 5120
2020-07-08 21:45 14.00 3580 6340 (2008) 54 (2006) 1530 59 79 338 557 939 2050 2320 4110 5120
2020-07-08 20:45 15.25 4480 6340 (2008) 54 (2006) 1530 59 79 338 557 939 2050 2320 4110 5120
2020-07-08 19:45 16.27 5270 6340 (2008) 54 (2006) 1530 59 79 338 557 939 2050 2320 4110 5120
2020-07-08 18:45 15.94 5010 6340 (2008) 54 (2006) 1530 59 79 338 557 939 2050 2320 4110 5120
2020-07-08 17:45 15.13 4390 6340 (2008) 54 (2006) 1530 59 79 338 557 939 2050 2320 4110 5120
2020-07-08 16:45 13.83 3470 6340 (2008) 54 (2006) 1530 59 79 338 557 939 2050 2320 4110 5120
2020-07-08 15:45 11.07 1840 6340 (2008) 54 (2006) 1530 59 79 338 557 939 2050 2320 4110 5120
2020-07-08 14:45 6.86 314 6340 (2008) 54 (2006) 1530 59 79 338 557 939 2050 2320 4110 5120
2020-07-08 13:45 6.49 221 6340 (2008) 54 (2006) 1530 59 79 338 557 939 2050 2320 4110 5120
2020-07-08 12:45 6.53 230 6340 (2008) 54 (2006) 1530 59 79 338 557 939 2050 2320 4110 5120
2020-07-08 11:45 6.59 244 6340 (2008) 54 (2006) 1530 59 79 338 557 939 2050 2320 4110 5120
2020-07-08 10:45 6.66 261 6340 (2008) 54 (2006) 1530 59 79 338 557 939 2050 2320 4110 5120
2020-07-08 09:45 6.76 287 6340 (2008) 54 (2006) 1530 59 79 338 557 939 2050 2320 4110 5120
2020-07-08 08:45 6.89 322 6340 (2008) 54 (2006) 1530 59 79 338 557 939 2050 2320 4110 5120
2020-07-08 07:45 7.07 365 6340 (2008) 54 (2006) 1530 59 79 338 557 939 2050 2320 4110 5120
2020-07-08 06:45 7.32 429 6340 (2008) 54 (2006) 1530 59 79 338 557 939 2050 2320 4110 5120
2020-07-08 05:45 7.64 516 6340 (2008) 54 (2006) 1530 59 79 338 557 939 2050 2320 4110 5120
2020-07-08 04:45 8.06 640 6340 (2008) 54 (2006) 1530 59 79 338 557 939 2050 2320 4110 5120
2020-07-08 03:45 8.58 809 6340 (2008) 54 (2006) 1530 59 79 338 557 939 2050 2320 4110 5120
2020-07-08 02:45 9.19 1030 6340 (2008) 54 (2006) 1530 59 79 338 557 939 2050 2320 4110 5120
2020-07-08 01:45 9.93 1320 6340 (2008) 54 (2006) 1530 59 79 338 557 939 2050 2320 4110 5120
2020-07-08 00:45 10.79 1700 6340 (2008) 54 (2006) 1530 59 79 338 557 939 2050 2320 4110 5120
2020-07-07 23:45 11.81 2230 5200 (2008) 55 (2006) 1310 63 83 180 228 850 1760 1930 4120 5090
2020-07-07 22:45 12.95 2900 5200 (2008) 55 (2006) 1310 63 83 180 228 850 1760 1930 4120 5090
2020-07-07 21:45 14.20 3720 5200 (2008) 55 (2006) 1310 63 83 180 228 850 1760 1930 4120 5090
2020-07-07 20:45 15.49 4660 5200 (2008) 55 (2006) 1310 63 83 180 228 850 1760 1930 4120 5090
2020-07-07 19:45 16.57 5520 5200 (2008) 55 (2006) 1310 63 83 180 228 850 1760 1930 4120 5090
2020-07-07 18:45 16.37 5350 5200 (2008) 55 (2006) 1310 63 83 180 228 850 1760 1930 4120 5090
2020-07-07 17:45 15.80 4900 5200 (2008) 55 (2006) 1310 63 83 180 228 850 1760 1930 4120 5090
2020-07-07 16:45 14.97 4270 5200 (2008) 55 (2006) 1310 63 83 180 228 850 1760 1930 4120 5090
2020-07-07 15:45 13.62 3330 5200 (2008) 55 (2006) 1310 63 83 180 228 850 1760 1930 4120 5090
2020-07-07 14:45 11.25 1930 5200 (2008) 55 (2006) 1310 63 83 180 228 850 1760 1930 4120 5090
2020-07-07 13:45 7.17 390 5200 (2008) 55 (2006) 1310 63 83 180 228 850 1760 1930 4120 5090
2020-07-07 12:45 6.68 266 5200 (2008) 55 (2006) 1310 63 83 180 228 850 1760 1930 4120 5090
2020-07-07 11:45 6.79 295 5200 (2008) 55 (2006) 1310 63 83 180 228 850 1760 1930 4120 5090
2020-07-07 10:45 6.94 334 5200 (2008) 55 (2006) 1310 63 83 180 228 850 1760 1930 4120 5090
2020-07-07 09:45 7.14 382 5200 (2008) 55 (2006) 1310 63 83 180 228 850 1760 1930 4120 5090
2020-07-07 08:45 7.39 447 5200 (2008) 55 (2006) 1310 63 83 180 228 850 1760 1930 4120 5090
2020-07-07 07:45 7.73 542 5200 (2008) 55 (2006) 1310 63 83 180 228 850 1760 1930 4120 5090
2020-07-07 06:45 8.17 675 5200 (2008) 55 (2006) 1310 63 83 180 228 850 1760 1930 4120 5090
2020-07-07 05:45 8.70 850 5200 (2008) 55 (2006) 1310 63 83 180 228 850 1760 1930 4120 5090
2020-07-07 04:45 9.35 1090 5200 (2008) 55 (2006) 1310 63 83 180 228 850 1760 1930 4120 5090
2020-07-07 03:45 10.11 1400 5200 (2008) 55 (2006) 1310 63 83 180 228 850 1760 1930 4120 5090
2020-07-07 02:45 11.00 1800 5200 (2008) 55 (2006) 1310 63 83 180 228 850 1760 1930 4120 5090
2020-07-07 01:45 12.05 2360 5200 (2008) 55 (2006) 1310 63 83 180 228 850 1760 1930 4120 5090
2020-07-07 00:45 13.23 3080 5200 (2008) 55 (2006) 1310 63 83 180 228 850 1760 1930 4120 5090
2020-07-06 23:45 14.52 3950 5270 (2007) 61 (1975) 1160 67 77 124 261 672 1290 1730 3240 4970
2020-07-06 22:45 15.86 4950 5270 (2007) 61 (1975) 1160 67 77 124 261 672 1290 1730 3240 4970
2020-07-06 21:45 17.04 5910 5270 (2007) 61 (1975) 1160 67 77 124 261 672 1290 1730 3240 4970
2020-07-06 20:45 17.06 5930 5270 (2007) 61 (1975) 1160 67 77 124 261 672 1290 1730 3240 4970
2020-07-06 19:45 16.87 5770 5270 (2007) 61 (1975) 1160 67 77 124 261 672 1290 1730 3240 4970
2020-07-06 18:45 16.62 5560 5270 (2007) 61 (1975) 1160 67 77 124 261 672 1290 1730 3240 4970
2020-07-06 17:45 16.27 5270 5270 (2007) 61 (1975) 1160 67 77 124 261 672 1290 1730 3240 4970
2020-07-06 16:45 15.80 4900 5270 (2007) 61 (1975) 1160 67 77 124 261 672 1290 1730 3240 4970
2020-07-06 15:45 15.09 4360 5270 (2007) 61 (1975) 1160 67 77 124 261 672 1290 1730 3240 4970
2020-07-06 14:45 13.96 3560 5270 (2007) 61 (1975) 1160 67 77 124 261 672 1290 1730 3240 4970
2020-07-06 13:45 11.73 2190 5270 (2007) 61 (1975) 1160 67 77 124 261 672 1290 1730 3240 4970
2020-07-06 12:45 7.35 437 5270 (2007) 61 (1975) 1160 67 77 124 261 672 1290 1730 3240 4970
2020-07-06 11:45 6.51 226 5270 (2007) 61 (1975) 1160 67 77 124 261 672 1290 1730 3240 4970
2020-07-06 10:45 6.54 233 5270 (2007) 61 (1975) 1160 67 77 124 261 672 1290 1730 3240 4970
2020-07-06 09:45 6.59 244 5270 (2007) 61 (1975) 1160 67 77 124 261 672 1290 1730 3240 4970
2020-07-06 08:45 6.66 261 5270 (2007) 61 (1975) 1160 67 77 124 261 672 1290 1730 3240 4970
2020-07-06 07:45 6.75 284 5270 (2007) 61 (1975) 1160 67 77 124 261 672 1290 1730 3240 4970
2020-07-06 06:45 6.88 319 5270 (2007) 61 (1975) 1160 67 77 124 261 672 1290 1730 3240 4970
2020-07-06 05:45 7.07 365 5270 (2007) 61 (1975) 1160 67 77 124 261 672 1290 1730 3240 4970
2020-07-06 04:45 7.32 429 5270 (2007) 61 (1975) 1160 67 77 124 261 672 1290 1730 3240 4970
2020-07-06 03:45 7.64 516 5270 (2007) 61 (1975) 1160 67 77 124 261 672 1290 1730 3240 4970
2020-07-06 02:45 8.05 637 5270 (2007) 61 (1975) 1160 67 77 124 261 672 1290 1730 3240 4970
2020-07-06 01:45 8.56 802 5270 (2007) 61 (1975) 1160 67 77 124 261 672 1290 1730 3240 4970
2020-07-06 00:45 9.17 1020 5270 (2007) 61 (1975) 1160 67 77 124 261 672 1290 1730 3240 4970

A total of 188 rows are displayed for years 1974 through 2019.